sensor_id;sensor_type;location;lat;lon;timestamp;temperature;humidity
3690;DHT22;1861;50.240;8.596;2023-12-14T00:02:08;8.10;99.90
3690;DHT22;1861;50.240;8.596;2023-12-14T00:04:36;8.10;99.90
3690;DHT22;1861;50.240;8.596;2023-12-14T00:07:04;8.10;99.90
3690;DHT22;1861;50.240;8.596;2023-12-14T00:09:32;8.10;99.90
3690;DHT22;1861;50.240;8.596;2023-12-14T00:12:01;8.10;99.90
3690;DHT22;1861;50.240;8.596;2023-12-14T00:14:29;8.10;99.90
3690;DHT22;1861;50.240;8.596;2023-12-14T00:16:58;8.10;99.90
3690;DHT22;1861;50.240;8.596;2023-12-14T00:19:26;8.00;99.90
3690;DHT22;1861;50.240;8.596;2023-12-14T00:21:55;8.10;99.90
3690;DHT22;1861;50.240;8.596;2023-12-14T00:24:23;8.10;99.90
3690;DHT22;1861;50.240;8.596;2023-12-14T00:26:51;8.10;99.90
3690;DHT22;1861;50.240;8.596;2023-12-14T00:29:19;8.10;99.90
3690;DHT22;1861;50.240;8.596;2023-12-14T00:31:47;8.20;99.90
3690;DHT22;1861;50.240;8.596;2023-12-14T00:34:17;8.10;99.90
3690;DHT22;1861;50.240;8.596;2023-12-14T00:36:45;8.20;99.90
3690;DHT22;1861;50.240;8.596;2023-12-14T00:39:13;8.10;99.90
3690;DHT22;1861;50.240;8.596;2023-12-14T00:41:41;8.10;99.90
3690;DHT22;1861;50.240;8.596;2023-12-14T00:44:10;8.10;99.90
3690;DHT22;1861;50.240;8.596;2023-12-14T00:46:38;8.10;99.90
3690;DHT22;1861;50.240;8.596;2023-12-14T00:49:06;8.20;99.90
3690;DHT22;1861;50.240;8.596;2023-12-14T00:51:36;8.10;99.90
3690;DHT22;1861;50.240;8.596;2023-12-14T00:54:05;8.10;99.90
3690;DHT22;1861;50.240;8.596;2023-12-14T00:56:33;8.20;99.90
3690;DHT22;1861;50.240;8.596;2023-12-14T00:59:01;8.10;99.90
3690;DHT22;1861;50.240;8.596;2023-12-14T01:01:29;8.10;99.90
3690;DHT22;1861;50.240;8.596;2023-12-14T01:03:58;8.10;99.90
3690;DHT22;1861;50.240;8.596;2023-12-14T01:06:26;8.20;99.90
3690;DHT22;1861;50.240;8.596;2023-12-14T01:08:56;8.10;99.90
3690;DHT22;1861;50.240;8.596;2023-12-14T01:11:24;8.10;99.90
3690;DHT22;1861;50.240;8.596;2023-12-14T01:13:52;8.10;99.90
3690;DHT22;1861;50.240;8.596;2023-12-14T01:16:20;8.10;99.90
3690;DHT22;1861;50.240;8.596;2023-12-14T01:18:48;8.10;99.90
3690;DHT22;1861;50.240;8.596;2023-12-14T01:21:17;8.10;99.90
3690;DHT22;1861;50.240;8.596;2023-12-14T01:23:45;8.10;99.90
3690;DHT22;1861;50.240;8.596;2023-12-14T01:26:14;8.20;99.90
3690;DHT22;1861;50.240;8.596;2023-12-14T01:28:42;8.20;99.90
3690;DHT22;1861;50.240;8.596;2023-12-14T01:31:11;8.20;99.90
3690;DHT22;1861;50.240;8.596;2023-12-14T01:33:39;8.20;99.90
3690;DHT22;1861;50.240;8.596;2023-12-14T01:36:26;8.20;99.90
3690;DHT22;1861;50.240;8.596;2023-12-14T01:38:54;8.20;99.90
3690;DHT22;1861;50.240;8.596;2023-12-14T01:41:24;8.20;99.90
3690;DHT22;1861;50.240;8.596;2023-12-14T01:43:52;8.20;99.90
3690;DHT22;1861;50.240;8.596;2023-12-14T01:46:20;8.20;99.90
3690;DHT22;1861;50.240;8.596;2023-12-14T01:48:48;8.20;99.90
3690;DHT22;1861;50.240;8.596;2023-12-14T01:51:16;8.20;99.90
3690;DHT22;1861;50.240;8.596;2023-12-14T01:53:44;8.20;99.90
3690;DHT22;1861;50.240;8.596;2023-12-14T01:56:12;8.30;99.90
3690;DHT22;1861;50.240;8.596;2023-12-14T01:58:42;8.20;99.90
3690;DHT22;1861;50.240;8.596;2023-12-14T02:01:17;8.20;99.90
3690;DHT22;1861;50.240;8.596;2023-12-14T02:03:50;8.20;99.90
3690;DHT22;1861;50.240;8.596;2023-12-14T02:06:19;8.20;99.90
3690;DHT22;1861;50.240;8.596;2023-12-14T02:08:47;8.20;99.90
3690;DHT22;1861;50.240;8.596;2023-12-14T02:11:16;8.20;99.90
3690;DHT22;1861;50.240;8.596;2023-12-14T02:13:46;8.20;99.90
3690;DHT22;1861;50.240;8.596;2023-12-14T02:16:14;8.20;99.90
3690;DHT22;1861;50.240;8.596;2023-12-14T02:18:42;8.10;99.90
3690;DHT22;1861;50.240;8.596;2023-12-14T02:21:11;8.10;99.90
3690;DHT22;1861;50.240;8.596;2023-12-14T02:23:43;8.20;99.90
3690;DHT22;1861;50.240;8.596;2023-12-14T02:26:12;8.20;99.90
3690;DHT22;1861;50.240;8.596;2023-12-14T02:28:40;8.20;99.90
3690;DHT22;1861;50.240;8.596;2023-12-14T02:31:09;8.20;99.90
3690;DHT22;1861;50.240;8.596;2023-12-14T02:33:37;8.20;99.90
3690;DHT22;1861;50.240;8.596;2023-12-14T02:36:05;8.30;99.90
3690;DHT22;1861;50.240;8.596;2023-12-14T02:38:34;8.30;99.90
3690;DHT22;1861;50.240;8.596;2023-12-14T02:41:04;8.20;99.90
3690;DHT22;1861;50.240;8.596;2023-12-14T02:43:32;8.30;99.90
3690;DHT22;1861;50.240;8.596;2023-12-14T02:46:01;8.30;99.90
3690;DHT22;1861;50.240;8.596;2023-12-14T02:48:30;8.30;99.90
3690;DHT22;1861;50.240;8.596;2023-12-14T02:50:59;8.30;99.90
3690;DHT22;1861;50.240;8.596;2023-12-14T02:53:27;8.20;99.90
3690;DHT22;1861;50.240;8.596;2023-12-14T02:55:55;8.20;99.90
3690;DHT22;1861;50.240;8.596;2023-12-14T02:58:25;8.30;99.90
3690;DHT22;1861;50.240;8.596;2023-12-14T03:00:53;8.30;99.90
3690;DHT22;1861;50.240;8.596;2023-12-14T03:03:21;8.30;99.90
3690;DHT22;1861;50.240;8.596;2023-12-14T03:05:49;8.30;99.90
3690;DHT22;1861;50.240;8.596;2023-12-14T03:08:17;8.30;99.90
3690;DHT22;1861;50.240;8.596;2023-12-14T03:10:46;8.30;99.90
3690;DHT22;1861;50.240;8.596;2023-12-14T03:13:14;8.20;99.90
3690;DHT22;1861;50.240;8.596;2023-12-14T03:15:44;8.20;99.90
3690;DHT22;1861;50.240;8.596;2023-12-14T03:18:13;8.30;99.90
3690;DHT22;1861;50.240;8.596;2023-12-14T03:20:41;8.20;99.90
3690;DHT22;1861;50.240;8.596;2023-12-14T03:23:09;8.20;99.90
3690;DHT22;1861;50.240;8.596;2023-12-14T03:25:37;8.20;99.90
3690;DHT22;1861;50.240;8.596;2023-12-14T03:28:05;8.20;99.90
3690;DHT22;1861;50.240;8.596;2023-12-14T03:30:34;8.20;99.90
3690;DHT22;1861;50.240;8.596;2023-12-14T03:33:04;8.30;99.90
3690;DHT22;1861;50.240;8.596;2023-12-14T03:35:35;8.30;99.90
3690;DHT22;1861;50.240;8.596;2023-12-14T03:38:03;8.20;99.90
3690;DHT22;1861;50.240;8.596;2023-12-14T03:40:31;8.20;99.90
3690;DHT22;1861;50.240;8.596;2023-12-14T03:42:59;8.30;99.90
3690;DHT22;1861;50.240;8.596;2023-12-14T03:45:27;8.30;99.90
3690;DHT22;1861;50.240;8.596;2023-12-14T03:47:55;8.30;99.90
3690;DHT22;1861;50.240;8.596;2023-12-14T03:50:25;8.30;99.90
3690;DHT22;1861;50.240;8.596;2023-12-14T03:52:55;8.40;99.90
3690;DHT22;1861;50.240;8.596;2023-12-14T03:55:23;8.30;99.90
3690;DHT22;1861;50.240;8.596;2023-12-14T03:57:51;8.20;99.90
3690;DHT22;1861;50.240;8.596;2023-12-14T04:00:20;8.30;99.90
3690;DHT22;1861;50.240;8.596;2023-12-14T04:02:48;8.30;99.90
3690;DHT22;1861;50.240;8.596;2023-12-14T04:05:16;8.30;99.90
3690;DHT22;1861;50.240;8.596;2023-12-14T04:07:46;8.30;99.90
3690;DHT22;1861;50.240;8.596;2023-12-14T04:10:14;8.20;99.90
3690;DHT22;1861;50.240;8.596;2023-12-14T04:12:43;8.30;99.90
3690;DHT22;1861;50.240;8.596;2023-12-14T04:15:11;8.20;99.90
3690;DHT22;1861;50.240;8.596;2023-12-14T04:17:39;8.20;99.90
3690;DHT22;1861;50.240;8.596;2023-12-14T04:20:08;8.30;99.90
3690;DHT22;1861;50.240;8.596;2023-12-14T04:22:36;8.30;99.90
3690;DHT22;1861;50.240;8.596;2023-12-14T04:25:07;8.20;99.90
3690;DHT22;1861;50.240;8.596;2023-12-14T04:27:35;8.20;99.90
3690;DHT22;1861;50.240;8.596;2023-12-14T04:30:04;8.20;99.90
3690;DHT22;1861;50.240;8.596;2023-12-14T04:32:32;8.30;99.90
3690;DHT22;1861;50.240;8.596;2023-12-14T04:35:01;8.30;99.90
3690;DHT22;1861;50.240;8.596;2023-12-14T04:37:29;8.20;99.90
3690;DHT22;1861;50.240;8.596;2023-12-14T04:39:58;8.20;99.90
3690;DHT22;1861;50.240;8.596;2023-12-14T04:42:27;8.20;99.90
3690;DHT22;1861;50.240;8.596;2023-12-14T04:44:55;8.20;99.90
3690;DHT22;1861;50.240;8.596;2023-12-14T04:47:23;8.20;99.90
3690;DHT22;1861;50.240;8.596;2023-12-14T04:49:51;8.30;99.90
3690;DHT22;1861;50.240;8.596;2023-12-14T04:52:19;8.30;99.90
3690;DHT22;1861;50.240;8.596;2023-12-14T04:54:48;8.20;99.90
3690;DHT22;1861;50.240;8.596;2023-12-14T04:57:16;8.20;99.90
3690;DHT22;1861;50.240;8.596;2023-12-14T04:59:46;8.20;99.90
3690;DHT22;1861;50.240;8.596;2023-12-14T05:02:14;8.20;99.90
3690;DHT22;1861;50.240;8.596;2023-12-14T05:04:42;8.20;99.90
3690;DHT22;1861;50.240;8.596;2023-12-14T05:07:10;8.20;99.90
3690;DHT22;1861;50.240;8.596;2023-12-14T05:09:39;8.20;99.90
3690;DHT22;1861;50.240;8.596;2023-12-14T05:12:07;8.20;99.90
3690;DHT22;1861;50.240;8.596;2023-12-14T05:14:35;8.20;99.90
3690;DHT22;1861;50.240;8.596;2023-12-14T05:17:04;8.20;99.90
3690;DHT22;1861;50.240;8.596;2023-12-14T05:19:33;8.10;99.90
3690;DHT22;1861;50.240;8.596;2023-12-14T05:22:03;8.10;99.90
3690;DHT22;1861;50.240;8.596;2023-12-14T05:24:31;8.10;99.90
3690;DHT22;1861;50.240;8.596;2023-12-14T05:26:59;8.10;99.90
3690;DHT22;1861;50.240;8.596;2023-12-14T05:29:27;8.10;99.90
3690;DHT22;1861;50.240;8.596;2023-12-14T05:31:55;8.10;99.90
3690;DHT22;1861;50.240;8.596;2023-12-14T05:34:25;8.00;99.90
3690;DHT22;1861;50.240;8.596;2023-12-14T05:36:53;8.10;99.90
3690;DHT22;1861;50.240;8.596;2023-12-14T05:39:21;8.10;99.90
3690;DHT22;1861;50.240;8.596;2023-12-14T05:41:50;8.00;99.90
3690;DHT22;1861;50.240;8.596;2023-12-14T05:44:18;8.00;99.90
3690;DHT22;1861;50.240;8.596;2023-12-14T05:46:46;8.10;99.90
3690;DHT22;1861;50.240;8.596;2023-12-14T05:49:14;8.10;99.90
3690;DHT22;1861;50.240;8.596;2023-12-14T05:51:44;8.10;99.90
3690;DHT22;1861;50.240;8.596;2023-12-14T05:54:12;8.00;99.90
3690;DHT22;1861;50.240;8.596;2023-12-14T05:56:40;8.00;99.90
3690;DHT22;1861;50.240;8.596;2023-12-14T05:59:08;8.00;99.90
3690;DHT22;1861;50.240;8.596;2023-12-14T06:01:37;8.10;99.90
3690;DHT22;1861;50.240;8.596;2023-12-14T06:04:05;8.20;99.90
3690;DHT22;1861;50.240;8.596;2023-12-14T06:06:33;8.20;99.90
3690;DHT22;1861;50.240;8.596;2023-12-14T06:09:02;8.20;99.90
3690;DHT22;1861;50.240;8.596;2023-12-14T06:11:33;8.10;99.90
3690;DHT22;1861;50.240;8.596;2023-12-14T06:14:01;8.20;99.90
3690;DHT22;1861;50.240;8.596;2023-12-14T06:16:29;8.20;99.90
3690;DHT22;1861;50.240;8.596;2023-12-14T06:18:57;8.20;99.90
3690;DHT22;1861;50.240;8.596;2023-12-14T06:21:26;8.20;99.90
3690;DHT22;1861;50.240;8.596;2023-12-14T06:23:56;8.10;99.90
3690;DHT22;1861;50.240;8.596;2023-12-14T06:26:27;8.20;99.90
3690;DHT22;1861;50.240;8.596;2023-12-14T06:28:55;8.10;99.90
3690;DHT22;1861;50.240;8.596;2023-12-14T06:31:23;8.10;99.90
3690;DHT22;1861;50.240;8.596;2023-12-14T06:33:51;8.10;99.90
3690;DHT22;1861;50.240;8.596;2023-12-14T06:36:21;8.20;99.90
3690;DHT22;1861;50.240;8.596;2023-12-14T06:38:53;8.10;99.90
3690;DHT22;1861;50.240;8.596;2023-12-14T06:41:22;8.20;99.90
3690;DHT22;1861;50.240;8.596;2023-12-14T06:43:52;8.20;99.90
3690;DHT22;1861;50.240;8.596;2023-12-14T06:46:21;8.20;99.90
3690;DHT22;1861;50.240;8.596;2023-12-14T06:48:49;8.10;99.90
3690;DHT22;1861;50.240;8.596;2023-12-14T06:51:17;8.20;99.90
3690;DHT22;1861;50.240;8.596;2023-12-14T06:53:45;8.20;99.90
3690;DHT22;1861;50.240;8.596;2023-12-14T06:56:14;8.20;99.90
3690;DHT22;1861;50.240;8.596;2023-12-14T06:58:43;8.20;99.90
3690;DHT22;1861;50.240;8.596;2023-12-14T07:01:14;8.20;99.90
3690;DHT22;1861;50.240;8.596;2023-12-14T07:03:43;8.20;99.90
3690;DHT22;1861;50.240;8.596;2023-12-14T07:06:12;8.20;99.90
3690;DHT22;1861;50.240;8.596;2023-12-14T07:08:42;8.20;99.90
3690;DHT22;1861;50.240;8.596;2023-12-14T07:11:11;8.10;99.90
3690;DHT22;1861;50.240;8.596;2023-12-14T07:13:40;8.10;99.90
3690;DHT22;1861;50.240;8.596;2023-12-14T07:16:09;8.10;99.90
3690;DHT22;1861;50.240;8.596;2023-12-14T07:18:40;8.10;99.90
3690;DHT22;1861;50.240;8.596;2023-12-14T07:21:10;8.10;99.90
3690;DHT22;1861;50.240;8.596;2023-12-14T07:23:38;8.20;99.90
3690;DHT22;1861;50.240;8.596;2023-12-14T07:26:06;8.20;99.90
3690;DHT22;1861;50.240;8.596;2023-12-14T07:28:35;8.20;99.90
3690;DHT22;1861;50.240;8.596;2023-12-14T07:31:03;8.10;99.90
3690;DHT22;1861;50.240;8.596;2023-12-14T07:33:31;8.10;99.90
3690;DHT22;1861;50.240;8.596;2023-12-14T07:36:01;8.20;99.90
3690;DHT22;1861;50.240;8.596;2023-12-14T07:38:29;8.20;99.90
3690;DHT22;1861;50.240;8.596;2023-12-14T07:40:58;8.20;99.90
3690;DHT22;1861;50.240;8.596;2023-12-14T07:43:26;8.30;99.90
3690;DHT22;1861;50.240;8.596;2023-12-14T07:45:54;8.30;99.90
3690;DHT22;1861;50.240;8.596;2023-12-14T07:48:22;8.30;99.90
3690;DHT22;1861;50.240;8.596;2023-12-14T07:50:51;8.30;99.90
3690;DHT22;1861;50.240;8.596;2023-12-14T07:53:20;8.40;99.90
3690;DHT22;1861;50.240;8.596;2023-12-14T07:55:48;8.30;99.90
3690;DHT22;1861;50.240;8.596;2023-12-14T07:58:17;8.30;99.90
3690;DHT22;1861;50.240;8.596;2023-12-14T08:00:45;8.40;99.90
3690;DHT22;1861;50.240;8.596;2023-12-14T08:03:13;8.30;99.90
3690;DHT22;1861;50.240;8.596;2023-12-14T08:05:41;8.40;99.90
3690;DHT22;1861;50.240;8.596;2023-12-14T08:08:09;8.40;99.90
3690;DHT22;1861;50.240;8.596;2023-12-14T08:10:39;8.40;99.90
3690;DHT22;1861;50.240;8.596;2023-12-14T08:13:07;8.50;99.90
3690;DHT22;1861;50.240;8.596;2023-12-14T08:15:35;8.50;99.90
3690;DHT22;1861;50.240;8.596;2023-12-14T08:18:04;8.60;99.90
3690;DHT22;1861;50.240;8.596;2023-12-14T08:20:32;8.60;99.90
3690;DHT22;1861;50.240;8.596;2023-12-14T08:23:00;8.60;99.90
3690;DHT22;1861;50.240;8.596;2023-12-14T08:25:28;8.70;99.90
3690;DHT22;1861;50.240;8.596;2023-12-14T08:27:58;8.70;99.90
3690;DHT22;1861;50.240;8.596;2023-12-14T08:30:30;8.70;99.90
3690;DHT22;1861;50.240;8.596;2023-12-14T08:32:58;8.70;99.90
3690;DHT22;1861;50.240;8.596;2023-12-14T08:35:27;8.70;99.90
3690;DHT22;1861;50.240;8.596;2023-12-14T08:37:55;8.70;99.90
3690;DHT22;1861;50.240;8.596;2023-12-14T08:40:23;8.80;99.90
3690;DHT22;1861;50.240;8.596;2023-12-14T08:42:51;8.70;99.90
3690;DHT22;1861;50.240;8.596;2023-12-14T08:45:20;8.80;99.90
3690;DHT22;1861;50.240;8.596;2023-12-14T08:47:48;8.80;99.90
3690;DHT22;1861;50.240;8.596;2023-12-14T08:50:17;8.80;99.90
3690;DHT22;1861;50.240;8.596;2023-12-14T08:52:45;8.70;99.90
3690;DHT22;1861;50.240;8.596;2023-12-14T08:55:14;8.80;99.90
3690;DHT22;1861;50.240;8.596;2023-12-14T08:57:42;8.80;99.90
3690;DHT22;1861;50.240;8.596;2023-12-14T09:00:11;8.80;99.90
3690;DHT22;1861;50.240;8.596;2023-12-14T09:02:41;8.80;99.90
3690;DHT22;1861;50.240;8.596;2023-12-14T09:05:10;8.80;99.90
3690;DHT22;1861;50.240;8.596;2023-12-14T09:07:41;8.80;99.90
3690;DHT22;1861;50.240;8.596;2023-12-14T09:10:10;8.80;99.90
3690;DHT22;1861;50.240;8.596;2023-12-14T09:12:38;8.80;99.90
3690;DHT22;1861;50.240;8.596;2023-12-14T09:15:06;8.80;99.90
3690;DHT22;1861;50.240;8.596;2023-12-14T09:17:35;8.80;99.90
3690;DHT22;1861;50.240;8.596;2023-12-14T09:20:07;8.80;99.90
3690;DHT22;1861;50.240;8.596;2023-12-14T09:22:35;8.90;99.90
3690;DHT22;1861;50.240;8.596;2023-12-14T09:25:05;8.80;99.90
3690;DHT22;1861;50.240;8.596;2023-12-14T09:27:33;8.90;99.90
3690;DHT22;1861;50.240;8.596;2023-12-14T09:30:02;8.90;99.90
3690;DHT22;1861;50.240;8.596;2023-12-14T09:32:31;8.90;99.90
3690;DHT22;1861;50.240;8.596;2023-12-14T09:34:59;8.90;99.90
3690;DHT22;1861;50.240;8.596;2023-12-14T09:37:29;8.90;99.90
3690;DHT22;1861;50.240;8.596;2023-12-14T09:39:57;8.90;99.90
3690;DHT22;1861;50.240;8.596;2023-12-14T09:42:25;8.90;99.90
3690;DHT22;1861;50.240;8.596;2023-12-14T09:44:53;8.90;99.90
3690;DHT22;1861;50.240;8.596;2023-12-14T09:47:23;8.90;99.90
3690;DHT22;1861;50.240;8.596;2023-12-14T09:49:52;8.90;99.90
3690;DHT22;1861;50.240;8.596;2023-12-14T09:52:20;8.90;99.90
3690;DHT22;1861;50.240;8.596;2023-12-14T09:54:50;8.90;99.90
3690;DHT22;1861;50.240;8.596;2023-12-14T09:57:22;8.80;99.90
3690;DHT22;1861;50.240;8.596;2023-12-14T09:59:52;8.90;99.90
3690;DHT22;1861;50.240;8.596;2023-12-14T10:02:25;8.90;99.90
3690;DHT22;1861;50.240;8.596;2023-12-14T10:04:54;8.90;99.90
3690;DHT22;1861;50.240;8.596;2023-12-14T10:07:22;8.90;99.90
3690;DHT22;1861;50.240;8.596;2023-12-14T10:09:52;8.90;99.90
3690;DHT22;1861;50.240;8.596;2023-12-14T10:12:20;8.80;99.90
3690;DHT22;1861;50.240;8.596;2023-12-14T10:15:00;8.90;99.90
3690;DHT22;1861;50.240;8.596;2023-12-14T10:17:29;8.90;99.90
3690;DHT22;1861;50.240;8.596;2023-12-14T10:20:00;8.90;99.90
3690;DHT22;1861;50.240;8.596;2023-12-14T10:22:31;9.00;99.90
3690;DHT22;1861;50.240;8.596;2023-12-14T10:25:00;8.90;99.90
3690;DHT22;1861;50.240;8.596;2023-12-14T10:27:30;9.00;99.90
3690;DHT22;1861;50.240;8.596;2023-12-14T10:29:59;9.00;99.90
3690;DHT22;1861;50.240;8.596;2023-12-14T10:32:28;9.00;99.90
3690;DHT22;1861;50.240;8.596;2023-12-14T10:34:56;8.90;99.90
3690;DHT22;1861;50.240;8.596;2023-12-14T10:37:25;9.00;99.90
3690;DHT22;1861;50.240;8.596;2023-12-14T10:39:54;9.00;99.90
3690;DHT22;1861;50.240;8.596;2023-12-14T10:42:25;8.90;99.90
3690;DHT22;1861;50.240;8.596;2023-12-14T10:44:56;9.00;99.90
3690;DHT22;1861;50.240;8.596;2023-12-14T10:47:45;8.90;99.90
3690;DHT22;1861;50.240;8.596;2023-12-14T10:50:15;9.00;99.90
3690;DHT22;1861;50.240;8.596;2023-12-14T10:52:44;9.00;99.90
3690;DHT22;1861;50.240;8.596;2023-12-14T10:55:20;8.90;99.90
3690;DHT22;1861;50.240;8.596;2023-12-14T10:57:51;9.00;99.90
3690;DHT22;1861;50.240;8.596;2023-12-14T11:00:19;9.00;99.90
3690;DHT22;1861;50.240;8.596;2023-12-14T11:02:47;9.00;99.90
3690;DHT22;1861;50.240;8.596;2023-12-14T11:05:16;9.10;99.90
3690;DHT22;1861;50.240;8.596;2023-12-14T11:07:51;9.10;99.90
3690;DHT22;1861;50.240;8.596;2023-12-14T11:10:23;9.10;99.90
3690;DHT22;1861;50.240;8.596;2023-12-14T11:12:55;9.10;99.90
3690;DHT22;1861;50.240;8.596;2023-12-14T11:15:24;9.20;99.90
3690;DHT22;1861;50.240;8.596;2023-12-14T11:18:19;9.20;99.90
3690;DHT22;1861;50.240;8.596;2023-12-14T11:20:48;9.20;99.90
3690;DHT22;1861;50.240;8.596;2023-12-14T11:23:18;9.20;99.90
3690;DHT22;1861;50.240;8.596;2023-12-14T11:25:56;9.20;99.90
3690;DHT22;1861;50.240;8.596;2023-12-14T11:28:27;9.20;99.90
3690;DHT22;1861;50.240;8.596;2023-12-14T11:30:57;9.20;99.90
3690;DHT22;1861;50.240;8.596;2023-12-14T11:33:25;9.20;99.90
3690;DHT22;1861;50.240;8.596;2023-12-14T11:35:55;9.20;99.90
3690;DHT22;1861;50.240;8.596;2023-12-14T11:38:25;9.30;99.90
3690;DHT22;1861;50.240;8.596;2023-12-14T11:40:53;9.30;99.90
3690;DHT22;1861;50.240;8.596;2023-12-14T11:43:21;9.30;99.90
3690;DHT22;1861;50.240;8.596;2023-12-14T11:45:53;9.30;99.90
3690;DHT22;1861;50.240;8.596;2023-12-14T11:48:22;9.20;99.90
3690;DHT22;1861;50.240;8.596;2023-12-14T11:50:51;9.20;99.90
3690;DHT22;1861;50.240;8.596;2023-12-14T11:53:19;8.90;99.90
3690;DHT22;1861;50.240;8.596;2023-12-14T11:55:47;9.20;99.90
3690;DHT22;1861;50.240;8.596;2023-12-14T11:58:15;9.30;99.90
3690;DHT22;1861;50.240;8.596;2023-12-14T12:00:44;9.30;99.90
3690;DHT22;1861;50.240;8.596;2023-12-14T12:03:16;9.30;99.90
3690;DHT22;1861;50.240;8.596;2023-12-14T12:05:49;9.20;99.90
3690;DHT22;1861;50.240;8.596;2023-12-14T12:08:19;9.30;99.90
3690;DHT22;1861;50.240;8.596;2023-12-14T12:10:48;9.20;99.90
3690;DHT22;1861;50.240;8.596;2023-12-14T12:13:18;9.30;99.90
3690;DHT22;1861;50.240;8.596;2023-12-14T12:15:48;9.30;99.90
3690;DHT22;1861;50.240;8.596;2023-12-14T12:18:17;9.30;99.90
3690;DHT22;1861;50.240;8.596;2023-12-14T12:20:46;9.30;99.90
3690;DHT22;1861;50.240;8.596;2023-12-14T12:23:14;9.30;99.90
3690;DHT22;1861;50.240;8.596;2023-12-14T12:25:43;9.30;99.90
3690;DHT22;1861;50.240;8.596;2023-12-14T12:28:11;9.30;99.90
3690;DHT22;1861;50.240;8.596;2023-12-14T12:30:39;9.30;99.90
3690;DHT22;1861;50.240;8.596;2023-12-14T12:33:08;9.30;99.90
3690;DHT22;1861;50.240;8.596;2023-12-14T12:35:38;9.30;99.90
3690;DHT22;1861;50.240;8.596;2023-12-14T12:38:06;9.30;99.90
3690;DHT22;1861;50.240;8.596;2023-12-14T12:40:35;9.40;99.90
3690;DHT22;1861;50.240;8.596;2023-12-14T12:43:03;9.40;99.90
3690;DHT22;1861;50.240;8.596;2023-12-14T12:45:31;9.40;99.90
3690;DHT22;1861;50.240;8.596;2023-12-14T12:48:00;9.40;99.90
3690;DHT22;1861;50.240;8.596;2023-12-14T12:50:30;9.50;99.90
3690;DHT22;1861;50.240;8.596;2023-12-14T12:52:59;9.40;99.90
3690;DHT22;1861;50.240;8.596;2023-12-14T12:55:28;9.40;99.90
3690;DHT22;1861;50.240;8.596;2023-12-14T12:57:56;9.40;99.90
3690;DHT22;1861;50.240;8.596;2023-12-14T13:00:25;9.40;99.90
3690;DHT22;1861;50.240;8.596;2023-12-14T13:02:53;9.40;99.90
3690;DHT22;1861;50.240;8.596;2023-12-14T13:05:21;9.30;99.90
3690;DHT22;1861;50.240;8.596;2023-12-14T13:07:52;9.30;99.90
3690;DHT22;1861;50.240;8.596;2023-12-14T13:10:22;9.40;99.90
3690;DHT22;1861;50.240;8.596;2023-12-14T13:12:58;9.40;99.90
3690;DHT22;1861;50.240;8.596;2023-12-14T13:15:27;9.40;99.90
3690;DHT22;1861;50.240;8.596;2023-12-14T13:17:57;9.30;99.90
3690;DHT22;1861;50.240;8.596;2023-12-14T13:20:26;9.30;99.90
3690;DHT22;1861;50.240;8.596;2023-12-14T13:22:54;9.30;99.90
3690;DHT22;1861;50.240;8.596;2023-12-14T13:25:24;9.30;99.90
3690;DHT22;1861;50.240;8.596;2023-12-14T13:27:53;9.40;99.90
3690;DHT22;1861;50.240;8.596;2023-12-14T13:30:21;9.50;99.90
3690;DHT22;1861;50.240;8.596;2023-12-14T13:32:49;9.40;99.90
3690;DHT22;1861;50.240;8.596;2023-12-14T13:35:20;9.30;99.90
3690;DHT22;1861;50.240;8.596;2023-12-14T13:37:49;9.20;99.90
3690;DHT22;1861;50.240;8.596;2023-12-14T13:40:17;9.30;99.90
3690;DHT22;1861;50.240;8.596;2023-12-14T13:42:47;9.30;99.90
3690;DHT22;1861;50.240;8.596;2023-12-14T13:45:29;9.30;99.90
3690;DHT22;1861;50.240;8.596;2023-12-14T13:47:58;9.30;99.90
3690;DHT22;1861;50.240;8.596;2023-12-14T13:50:26;9.40;99.90
3690;DHT22;1861;50.240;8.596;2023-12-14T13:52:55;9.30;99.90
3690;DHT22;1861;50.240;8.596;2023-12-14T13:55:24;9.20;99.90
3690;DHT22;1861;50.240;8.596;2023-12-14T13:57:54;9.20;99.90
3690;DHT22;1861;50.240;8.596;2023-12-14T14:00:24;9.20;99.90
3690;DHT22;1861;50.240;8.596;2023-12-14T14:02:53;9.10;99.90
3690;DHT22;1861;50.240;8.596;2023-12-14T14:05:22;9.10;99.90
3690;DHT22;1861;50.240;8.596;2023-12-14T14:07:50;9.10;99.90
3690;DHT22;1861;50.240;8.596;2023-12-14T14:10:18;9.10;99.90
3690;DHT22;1861;50.240;8.596;2023-12-14T14:12:47;9.00;99.90
3690;DHT22;1861;50.240;8.596;2023-12-14T14:15:17;9.10;99.90
3690;DHT22;1861;50.240;8.596;2023-12-14T14:17:46;9.10;99.90
3690;DHT22;1861;50.240;8.596;2023-12-14T14:20:18;9.10;99.90
3690;DHT22;1861;50.240;8.596;2023-12-14T14:22:46;9.00;99.90
3690;DHT22;1861;50.240;8.596;2023-12-14T14:25:15;9.00;99.90
3690;DHT22;1861;50.240;8.596;2023-12-14T14:27:43;9.00;99.90
3690;DHT22;1861;50.240;8.596;2023-12-14T14:30:14;9.00;99.90
3690;DHT22;1861;50.240;8.596;2023-12-14T14:32:44;9.00;99.90
3690;DHT22;1861;50.240;8.596;2023-12-14T14:35:12;9.00;99.90
3690;DHT22;1861;50.240;8.596;2023-12-14T14:37:41;9.00;99.90
3690;DHT22;1861;50.240;8.596;2023-12-14T14:40:13;9.00;99.90
3690;DHT22;1861;50.240;8.596;2023-12-14T14:42:41;8.90;99.90
3690;DHT22;1861;50.240;8.596;2023-12-14T14:45:11;9.00;99.90
3690;DHT22;1861;50.240;8.596;2023-12-14T14:47:40;9.00;99.90
3690;DHT22;1861;50.240;8.596;2023-12-14T14:50:10;9.00;99.90
3690;DHT22;1861;50.240;8.596;2023-12-14T14:52:38;9.00;99.90
3690;DHT22;1861;50.240;8.596;2023-12-14T14:55:07;8.90;99.90
3690;DHT22;1861;50.240;8.596;2023-12-14T14:57:35;9.00;99.90
3690;DHT22;1861;50.240;8.596;2023-12-14T15:00:06;9.00;99.90
3690;DHT22;1861;50.240;8.596;2023-12-14T15:02:35;8.90;99.90
3690;DHT22;1861;50.240;8.596;2023-12-14T15:05:04;9.00;99.90
3690;DHT22;1861;50.240;8.596;2023-12-14T15:07:34;8.90;99.90
3690;DHT22;1861;50.240;8.596;2023-12-14T15:10:02;8.90;99.90
3690;DHT22;1861;50.240;8.596;2023-12-14T15:12:30;8.90;99.90
3690;DHT22;1861;50.240;8.596;2023-12-14T15:14:59;9.00;99.90
3690;DHT22;1861;50.240;8.596;2023-12-14T15:17:27;9.00;99.90
3690;DHT22;1861;50.240;8.596;2023-12-14T15:19:56;8.90;99.90
3690;DHT22;1861;50.240;8.596;2023-12-14T15:22:24;9.00;99.90
3690;DHT22;1861;50.240;8.596;2023-12-14T15:24:53;8.90;99.90
3690;DHT22;1861;50.240;8.596;2023-12-14T15:27:21;8.90;99.90
3690;DHT22;1861;50.240;8.596;2023-12-14T15:29:49;8.90;99.90
3690;DHT22;1861;50.240;8.596;2023-12-14T15:32:19;8.90;99.90
3690;DHT22;1861;50.240;8.596;2023-12-14T15:34:48;8.90;99.90
3690;DHT22;1861;50.240;8.596;2023-12-14T15:37:17;8.90;99.90
3690;DHT22;1861;50.240;8.596;2023-12-14T15:39:45;8.90;99.90
3690;DHT22;1861;50.240;8.596;2023-12-14T15:42:17;8.90;99.90
3690;DHT22;1861;50.240;8.596;2023-12-14T15:44:45;8.80;99.90
3690;DHT22;1861;50.240;8.596;2023-12-14T15:47:13;8.80;99.90
3690;DHT22;1861;50.240;8.596;2023-12-14T15:49:42;8.80;99.90
3690;DHT22;1861;50.240;8.596;2023-12-14T15:52:11;8.80;99.90
3690;DHT22;1861;50.240;8.596;2023-12-14T15:54:39;8.70;99.90
3690;DHT22;1861;50.240;8.596;2023-12-14T15:57:06;8.70;99.90
3690;DHT22;1861;50.240;8.596;2023-12-14T15:59:36;8.60;99.90
3690;DHT22;1861;50.240;8.596;2023-12-14T16:02:04;8.60;99.90
3690;DHT22;1861;50.240;8.596;2023-12-14T16:04:32;8.70;99.90
3690;DHT22;1861;50.240;8.596;2023-12-14T16:07:00;8.60;99.90
3690;DHT22;1861;50.240;8.596;2023-12-14T16:09:28;8.60;99.90
3690;DHT22;1861;50.240;8.596;2023-12-14T16:11:57;8.50;99.90
3690;DHT22;1861;50.240;8.596;2023-12-14T16:14:27;8.50;99.90
3690;DHT22;1861;50.240;8.596;2023-12-14T16:16:56;8.50;99.90
3690;DHT22;1861;50.240;8.596;2023-12-14T16:19:24;8.50;99.90
3690;DHT22;1861;50.240;8.596;2023-12-14T16:21:52;8.50;99.90
3690;DHT22;1861;50.240;8.596;2023-12-14T16:24:21;8.50;99.90
3690;DHT22;1861;50.240;8.596;2023-12-14T16:26:49;8.50;99.90
3690;DHT22;1861;50.240;8.596;2023-12-14T16:29:25;8.50;99.90